Station CHII2 - Harrison-Dever Crib, Chicago, IL Image indicating link to RSS feed of recent meteorological observations for station CHII2


Conditions at CHII2 as of
(2:50 am CDT)
0750 GMT on 06/13/2024:
     

Click on the graph icon in the table below to see a time series plot of the last five days of that observation.

5-day plot - Wind Direction Wind Direction (WDIR): SW ( 220 deg true )
5-day plot - Wind Speed Wind Speed (WSPD):9.3 m/s
5-day plot - Wind Gust Wind Gust (GST):10.8 m/s
5-day plot - Air Temperature Air Temperature (ATMP): 28.5 °C
5-day plot - Dew Point Dew Point (DEWP): 19.8 °C
5-day plot - Heat Index Heat Index (HEAT): 30.1 °C
5-day plot -  Wind Speed, Wind Gust and Atmospheric Pressure Combined plot of Wind Speed, Gust, and Air Pressure
Previous observations
TIME
(CDT)
5-day plot - Wind Direction
WDIR
 
5-day plot - Wind Speed
WSPD
m/s
5-day plot - Wind Gust
GST
m/s
5-day plot - Wave Height
WVHT
m
5-day plot - Dominant Wave Period
DPD
sec
5-day plot - Average Wave Period
APD
sec
5-day plot - Mean Wave Direction
MWD
 
5-day plot - Atmospheric Pressure
PRES
mb
5-day plot - Pressure Tendency
PTDY
mb
5-day plot - Air Temperature
ATMP
°C
5-day plot - Water Temperature
WTMP
°C
5-day plot - Dew Point
DEWP
°C
5-day plot - Salinity
SAL
psu
5-day plot - Visibility
VIS
km
5-day plot - Tide (above MLLW)
TIDE
m
2024-06-13 02:40 am SW 9 12------ 28.5- 20.0---
2024-06-13 02:30 am SW 10 10------ 29.0- 20.0---
2024-06-13 02:20 am SW 10 12------ 29.0- 19.9---
2024-06-13 02:10 am SW 10 13------ 29.1- 20.0---
2024-06-13 02:00 am SW 10 12------ 29.4- 19.9---
2024-06-13 01:50 am SW 10 12------ 29.6- 19.7---
2024-06-13 01:40 am SW 11 13------ 29.9- 19.8---
2024-06-13 01:30 am SW 9 11------ 30.0- 19.7---
2024-06-13 01:20 am SW 9 12------ 29.9- 19.7---
2024-06-13 01:10 amWSW 10 12------ 30.0- 19.7---
2024-06-13 01:00 am SW 8 10------ 30.1- 19.6---
2024-06-13 12:50 amWSW 9 10------ 30.1- 19.5---
2024-06-13 12:40 amWSW 9 11------ 30.3- 19.5---
2024-06-13 12:30 amWSW 9 10------ 30.3- 19.4---
2024-06-13 12:20 amWSW 9 11------ 30.2- 19.2---
2024-06-13 12:10 amWSW 9 13------ 30.6- 19.0---
2024-06-13 12:00 amWSW 9 10------ 30.7- 19.0---
2024-06-12 11:50 pmWSW 9 11------ 30.8- 18.8---
2024-06-12 11:40 pmWSW 6 7------ 30.8- 18.4---
2024-06-12 11:30 pmWSW 7 7------ 31.1- 18.3---
2024-06-12 11:20 pmWSW 6 7------ 31.2- 18.2---
2024-06-12 11:10 pm W 7 8------ 31.3- 18.1---
2024-06-12 11:00 pm W 6 7------ 31.3- 17.8---
2024-06-12 10:50 pm W 6 7------ 31.0- 18.0---
2024-06-12 10:40 pm SW 8 10------ 31.9- 17.6---
2024-06-12 10:30 pm SW 7 7------ 31.3- 17.2---
2024-06-12 10:20 pmSSW 8 10------ 31.7- 17.0---
2024-06-12 10:10 pmSSW 8 9------ 31.8- 16.8---
2024-06-12 10:00 pmSSW 7 8------ 31.4- 16.4---
2024-06-12 09:50 pmSSW 8 8------ 31.6- 16.1---
2024-06-12 09:40 pm S 8 8------ 31.4- 15.9---
2024-06-12 09:30 pm S 7 7------ 31.7- 15.8---
2024-06-12 09:20 pm S 6 7------ 32.1- 15.8---
2024-06-12 09:10 pm S 7 7------ 32.2- 15.7---
2024-06-12 09:00 pm S 7 7------ 32.5- 15.5---
2024-06-12 08:50 pm S 7 8------ 32.6- 15.5---
2024-06-12 08:40 pmSSW 6 7------ 32.5- 15.3---
2024-06-12 08:30 pmSSW 5 6------ 31.2- 16.1---
2024-06-12 08:20 pmSSW 5 6------ 32.1- 15.4---
2024-06-12 08:10 pmSSW 5 5------ 31.8- 15.6---
2024-06-12 08:00 pmSSW 4 5------ 30.7- 15.9---
2024-06-12 07:50 pmSSW 4 5------ 30.2- 16.7---
2024-06-12 07:40 pmSSW 5 6------ 31.3- 16.2---
2024-06-12 07:30 pm S 5 5------ 29.6- 16.7---
2024-06-12 07:20 pm S 5 5------ 29.2- 16.9---
2024-06-12 07:10 pm S 6 7------ 29.4- 16.9---
2024-06-12 07:00 pm S 6 7------ 29.5- 16.9---
2024-06-12 06:50 pm S 6 7------ 28.4- 17.3---
2024-06-12 06:40 pmSSE 6 6------ 28.6- 16.7---
2024-06-12 06:30 pm S 7 8------ 28.4- 16.7---
2024-06-12 06:20 pm S 6 8------ 29.1- 15.8---
2024-06-12 06:10 pmSSE 4 8------ 26.3- 16.4---
2024-06-12 06:00 pmSSE 6 7------ 27.7- 18.1---
2024-06-12 05:50 pmSSE 9 10------ 27.2- 16.0---
2024-06-12 05:40 pmSSE 7 9------ 27.4- 17.6---
2024-06-12 05:30 pm SE 9 10------ 27.3- 17.1---
2024-06-12 05:20 pm SE 9 9------ 27.2- 18.5---
2024-06-12 05:10 pm SE 7 7------ 27.0- 19.3---
2024-06-12 05:00 pm SE 8 9------ 26.7- 18.7---
2024-06-12 04:50 pm SE 7 8------ 25.2- 20.3---
2024-06-12 04:40 pmESE 7 8------ 24.5- 20.3---
2024-06-12 04:30 pmESE 7 8------ 26.2- 19.5---
2024-06-12 04:20 pmESE 7 7------ 25.6- 19.7---
2024-06-12 04:10 pmESE 7 8------ 26.2- 19.4---
2024-06-12 04:00 pmESE 7 7------ 27.0- 18.9---
2024-06-12 03:50 pmESE 8 8------ 28.7- 17.6---
2024-06-12 03:40 pmESE 8 9------ 28.6- 17.1---
2024-06-12 03:30 pm SE 9 9------ 27.9- 17.0---
2024-06-12 03:20 pmESE 8 9------ 29.1- 15.5---
2024-06-12 03:10 pmESE 8 8------ 27.5- 17.2---
2024-06-12 03:00 pmESE 6 7------ 26.4- 18.6---
2024-06-12 02:50 pm SE 6 7------ 26.6- 19.3---
2024-06-12 02:40 pm SE 8 8------ 26.7- 18.2---
2024-06-12 02:30 pm SE 7 7------ 25.6- 19.6---
2024-06-12 02:20 pmESE 7 9------ 26.7- 19.7---
2024-06-12 02:10 pm SE 8 9------ 29.1- 18.1---
2024-06-12 02:00 pm SE 8 9------ 29.2- 17.7---
2024-06-12 01:50 pm SE 8 9------ 29.1- 18.3---
2024-06-12 01:40 pmSSE 8 9------ 29.8- 16.5---
2024-06-12 01:30 pmSSE 7 8------ 28.8- 17.6---
2024-06-12 01:20 pm SE 8 8------ 29.1- 18.0---
2024-06-12 01:10 pm SE 7 8------ 29.4- 17.4---
2024-06-12 01:00 pm SE 7 7------ 29.3- 17.0---
2024-06-12 12:50 pm SE 7 7------ 29.1- 17.2---
2024-06-12 12:40 pm SE 6 7------ 29.3- 17.1---
2024-06-12 12:30 pmSSE 6 7------ 28.9- 17.0---
2024-06-12 12:20 pm SE 6 6------ 28.2- 17.2---
2024-06-12 12:10 pm S 5 5------ 28.1- 17.6---
2024-06-12 12:00 pm S 4 5------ 27.9- 18.1---
2024-06-12 11:50 am S 5 5------ 27.3- 18.2---
2024-06-12 11:40 am S 5 5------ 27.1- 17.8---
2024-06-12 11:30 am S 4 4------ 27.5- 17.6---
2024-06-12 11:20 am S 4 5------ 26.8- 17.7---
2024-06-12 11:10 am S 3 3------ 26.1- 18.1---
2024-06-12 11:00 am S 3 4------ 25.9- 18.2---
2024-06-12 10:50 am S 3 3------ 26.1- 18.3---
2024-06-12 10:40 amSSW 1 2------ 26.1- 18.0---
2024-06-12 10:30 am SW 4 4------ 26.3- 17.8---
2024-06-12 10:20 am SW 4 5------ 26.7- 17.7---
2024-06-12 10:10 am SW 4 4------ 26.2- 17.7---
2024-06-12 10:00 am SW 6 6------ 25.7- 17.7---
2024-06-12 09:50 amSSW 5 6------ 25.2- 17.6---
2024-06-12 09:40 amSSW 3 3------ 24.8- 17.4---
2024-06-12 09:30 amWSW 5 6------ 25.4- 17.0---
2024-06-12 09:20 am W 5 6------ 25.2- 17.0---
2024-06-12 09:10 am W 5 5------ 24.9- 16.8---
2024-06-12 09:00 am SW 5 6------ 24.6- 16.7---
2024-06-12 08:50 am SW 4 5------ 24.2- 16.8---
2024-06-12 08:40 am SW 6 7------ 23.7- 16.7---
2024-06-12 08:30 am SW 7 9------ 23.7- 16.4---
2024-06-12 08:20 amWSW 8 9------ 23.7- 16.5---
2024-06-12 08:10 amWSW 7 8------ 23.7- 16.6---
2024-06-12 08:00 am SW 9 11------ 23.7- 16.5---
2024-06-12 07:50 am SW 8 9------ 23.5- 16.3---
2024-06-12 07:40 amWSW 9 9------ 23.6- 16.0---
2024-06-12 07:30 amWSW 10 14------ 23.7- 15.9---
2024-06-12 07:20 amWSW 11 12------ 23.6- 15.6---
2024-06-12 07:10 am SW 13 14------ 23.5- 15.4---
2024-06-12 07:00 am SW 13 15------ 23.6- 15.3---
2024-06-12 06:50 am SW 14 16------ 23.6- 15.0---
2024-06-12 06:40 am SW 13 14------ 23.6- 15.0---
2024-06-12 06:30 am SW 12 14------ 23.5- 14.9---
2024-06-12 06:20 am SW 13 15------ 23.3- 14.9---
2024-06-12 06:10 am SW 14 15------ 23.4- 14.5---
2024-06-12 06:00 am SW 15 16------ 23.5- 14.4---
2024-06-12 05:50 am SW 14 16------ 23.5- 14.4---
2024-06-12 05:40 am SW 15 18------ 23.6- 14.2---
2024-06-12 05:30 am SW 14 15------ 23.5- 14.2---
2024-06-12 05:20 am SW 14 15------ 23.6- 14.2---
2024-06-12 05:10 am SW 14 16------ 23.5- 14.1---
2024-06-12 05:00 am SW 14 16------ 23.6- 13.7---
2024-06-12 04:50 am SW 15 18------ 23.8- 13.7---
2024-06-12 04:40 am SW 14 16------ 23.8- 13.4---
2024-06-12 04:30 am SW 14 15------ 23.7- 13.3---
2024-06-12 04:20 am SW 14 16------ 23.8- 13.2---
2024-06-12 04:10 am SW 13 15------ 23.8- 13.2---
2024-06-12 04:00 am SW 14 16------ 23.8- 12.9---
2024-06-12 03:50 am SW 13 14------ 23.8- 13.1---
2024-06-12 03:40 am SW 14 16------ 24.1- 12.9---
2024-06-12 03:30 am SW 14 16------ 24.2- 13.1---
2024-06-12 03:20 am SW 14 16------ 24.2- 13.2---
2024-06-12 03:10 amSSW 13 14------ 24.1- 12.9---
2024-06-12 03:00 am SW 12 13------ 24.6- 13.1---
2024-06-12 02:50 am SW 12 13------ 24.5- 13.4---